Rushmore, Minnesota
Current Conditions -  °F | °C
As of 11:55 AM on Sunday 21 Dec 2014 (Local Time) from KOTG Reporting Station
Overcast Overcast  
Wind Chill: 25°   Ceiling: 200
Heat Index: 36°   Visibility: 0.75mi
Dew Point: -13°   Wind: 18mph
Humidity: 12%   Direction: 190°S
Pressure: 29.72"   Gusts: NA
Location:  43.62°N, 95.8°W
Report Text: KOTG 211755Z AUTO 19016KT 3/4SM OVC002 02/M25 A2972 RMK AO1 10020 21010 57024
Loading
Personal Weather Stations






























Interactive Weather Map New forecast layout! Learn more

10-Day Weather Forecast

Advertisements
Track Severe Weather on mobile